Sunday, May 27, 2018, 6:02 AM EDT
Back to Local

KCXY, Harrisburg Capital City

Location: New Cumberland, PA, United States Lat: 40.217
Local Time: 6:02 AM EDT (10:02 GMT) Lon: -76.85
Time Zone: US/Eastern Elev: 347 ft

Show me the last for .
Show Decoded

2018-05-27 04:56 METAR KCXY 270856Z AUTO 00000KT 10SM BKN100 OVC120 23/20 A2987 RMK AO2 SLP113
                 60000 T02330200 53002 =
2018-05-27 03:56 METAR KCXY 270756Z AUTO 00000KT 10SM BKN100 OVC120 24/20 A2986 RMK AO2 RAE00
                 SLP110 P0000 T02390200 =
2018-05-27 02:56 METAR KCXY 270656Z AUTO 00000KT 10SM -RA FEW090 OVC110 24/19 A2986 RMK AO2 RAB48
                 SLP107 P0000 T02440194 =
2018-05-27 01:56 METAR KCXY 270556Z AUTO 00000KT 10SM SCT090 24/19 A2987 RMK AO2 SLP111 T02440194
                 10283 20244 50000 =
2018-05-27 00:56 METAR KCXY 270456Z AUTO 00000KT 10SM SCT110 24/19 A2987 RMK AO2 SLP113 T02440189
                 403390200 =
2018-05-26 23:56 METAR KCXY 270356Z AUTO 28003KT 10SM FEW110 25/18 A2987 RMK AO2 SLP114 T02500183
                 =
2018-05-26 22:56 METAR KCXY 270256Z AUTO 25004KT 10SM CLR 24/18 A2986 RMK AO2 SLP111 T02440183
                 51015 =
2018-05-26 21:56 METAR KCXY 270156Z AUTO 25007KT 10SM CLR 26/18 A2985 RMK AO2 SLP107 T02560178 =
2018-05-26 20:56 METAR KCXY 270056Z 31004KT 10SM CLR 27/18 A2984 RMK AO2 SLP103 T02720178 =
2018-05-26 19:56 METAR KCXY 262356Z VRB06KT 10SM BKN055 28/16 A2982 RMK AO2 RAB23E49 SLP096 P0000
                 60000 T02830156 10339 20267 53009 =
2018-05-26 18:56 METAR KCXY 262256Z 19006KT 10SM FEW050 31/16 A2981 RMK AO2 LTG DSNT S SLP091
                 T03110156 =
2018-05-26 17:56 METAR KCXY 262156Z 00000KT 10SM FEW080 33/13 A2980 RMK AO2 LTG DSNT SW SLP088
                 T03280128 =
2018-05-26 16:56 METAR KCXY 262056Z COR 26007KT 10SM FEW070 33/14 A2979 RMK AO2 SLP087 T03330139
                 55010 =
2018-05-26 15:56 METAR KCXY 261956Z 28003KT 10SM FEW070 33/12 A2979 =
2018-05-26 14:56 METAR KCXY 261856Z COR 30008KT 10SM FEW070 33/13 A2981 =
2018-05-26 13:56 METAR KCXY 261756Z 29005KT 10SM FEW060 31/17 A2982 =
2018-05-26 12:56 METAR KCXY 261656Z VRB05KT 10SM SCT055 BKN070 32/19 A2984 =
2018-05-26 11:56 METAR KCXY 261556Z 29006KT 10SM FEW039 31/20 A2984 RMK AO2 SLP104 T03060200 =
2018-05-26 10:56 METAR KCXY 261456Z 28007KT 10SM CLR 29/19 A2985 RMK AO2 SLP105 T02940194 58005 =
2018-05-26 09:56 METAR KCXY 261356Z 26005KT 10SM CLR 28/19 A2986 RMK AO2 SLP110 T02780194 =
2018-05-26 08:56 METAR KCXY 261256Z 23004KT 10SM CLR 26/19 A2987 RMK AO2 SLP111 T02560189 =
2018-05-26 07:56 METAR KCXY 261156Z 27004KT 10SM FEW060 23/19 A2986 RMK AO2 SLP110 T02330189
                 10239 20200 51006 =
2018-05-26 06:56 METAR KCXY 261056Z 28003KT 10SM SCT065 22/18 A2986 RMK AO2 SLP109 T02220183 =

Support USWX by starting your Amazon purchase here.